Time;durP1;ratioP1;P1;durP2;ratioP2;P2;SDS_P1;SDS_P2;PMS_P1;PMS_P2;Temp;Humidity;BMP_temperature;BMP_pressure;BME280_temperature;BME280_humidity;BME280_pressure;Samples;Min_cycle;Max_cycle;Signal;HPM_P1;HPM_P2
2022/01/26 00:06:25;;;;;;;;;;;1.90;99.90;;;;;;5114708;28;19965;-42
2022/01/26 00:08:51;;;;;;;;;;;1.80;99.90;;;;;;5114628;28;20316;-43
2022/01/26 00:11:16;;;;;;;;;;;1.70;99.90;;;;;;5114885;28;19934;-43
2022/01/26 00:13:42;;;;;;;;;;;1.60;99.90;;;;;;5114527;28;19912;-42
2022/01/26 00:16:14;;;;;;;;;;;1.60;99.90;;;;;;5114483;28;19960;-41
2022/01/26 00:18:40;;;;;;;;;;;1.60;99.90;;;;;;5096475;28;19947;-42
2022/01/26 00:21:12;;;;;;;;;;;1.60;99.90;;;;;;5114723;28;19942;-42
2022/01/26 00:29:15;;;;;;;;;;;1.50;99.90;;;;;;5058865;28;19909;-41
2022/01/26 00:40:03;;;;;;;;;;;0.90;99.90;;;;;;5114647;28;19915;-42
2022/01/26 00:42:34;;;;;;;;;;;0.60;99.90;;;;;;5114194;28;19969;-42
2022/01/26 00:45:00;;;;;;;;;;;0.60;99.90;;;;;;5114427;28;20343;-42
2022/01/26 00:47:25;;;;;;;;;;;0.60;99.90;;;;;;5114466;28;19914;-42
2022/01/26 00:49:56;;;;;;;;;;;0.70;99.90;;;;;;5114778;28;19907;-42
2022/01/26 00:52:29;;;;;;;;;;;0.70;99.90;;;;;;5114383;28;19908;-42
2022/01/26 00:54:55;;;;;;;;;;;0.90;99.90;;;;;;5114484;28;20316;-42
2022/01/26 00:57:21;;;;;;;;;;;0.80;99.90;;;;;;5114374;28;20019;-43
2022/01/26 00:59:47;;;;;;;;;;;0.80;99.90;;;;;;5114318;28;19960;-42
2022/01/26 01:02:12;;;;;;;;;;;1.00;99.90;;;;;;5114356;28;19916;-42
2022/01/26 01:04:38;;;;;;;;;;;1.10;99.90;;;;;;5114336;28;19974;-42
2022/01/26 01:07:06;;;;;;;;;;;0.80;99.90;;;;;;5114213;28;20376;-42
2022/01/26 01:09:34;;;;;;;;;;;0.50;99.90;;;;;;5114282;28;19931;-42
2022/01/26 01:12:01;;;;;;;;;;;0.60;99.90;;;;;;5113849;28;19915;-42
2022/01/26 01:14:27;;;;;;;;;;;0.70;99.90;;;;;;5114164;28;19908;-42
2022/01/26 01:16:55;;;;;;;;;;;0.90;99.90;;;;;;5114266;28;19918;-42
2022/01/26 01:19:32;;;;;;;;;;;0.90;99.90;;;;;;5114205;28;19908;-42
2022/01/26 01:25:21;;;;;;;;;;;0.90;99.90;;;;;;5113904;28;20019;-42
2022/01/26 01:29:55;;;;;;;;;;;1.10;99.90;;;;;;5114065;28;19915;-42
2022/01/26 01:32:30;;;;;;;;;;;1.20;99.90;;;;;;5114078;28;19908;-42
2022/01/26 01:34:55;;;;;;;;;;;1.20;99.90;;;;;;5114133;28;19998;-41
2022/01/26 01:37:21;;;;;;;;;;;1.10;99.90;;;;;;5113774;28;19947;-44
2022/01/26 01:39:46;;;;;;;;;;;1.10;99.90;;;;;;5114011;28;19908;-43
2022/01/26 01:42:12;;;;;;;;;;;1.10;99.90;;;;;;5113964;28;19919;-42
2022/01/26 01:44:37;;;;;;;;;;;1.10;99.90;;;;;;5115070;28;20358;-42
2022/01/26 01:47:05;;;;;;;;;;;1.10;99.90;;;;;;5117585;28;19964;-42
2022/01/26 01:49:30;;;;;;;;;;;1.20;99.90;;;;;;5117322;28;19914;-42
2022/01/26 01:52:01;;;;;;;;;;;1.20;99.90;;;;;;5117182;28;19908;-42
2022/01/26 01:54:26;;;;;;;;;;;1.20;99.90;;;;;;5117613;28;19969;-41
2022/01/26 01:56:56;;;;;;;;;;;1.30;99.90;;;;;;5117207;28;19911;-42
2022/01/26 01:59:23;;;;;;;;;;;1.30;99.90;;;;;;5117198;28;19931;-42
2022/01/26 02:01:48;;;;;;;;;;;1.00;99.90;;;;;;5117419;28;20300;-42
2022/01/26 02:04:14;;;;;;;;;;;1.20;99.90;;;;;;5116909;28;19908;-42
2022/01/26 02:06:41;;;;;;;;;;;1.20;99.90;;;;;;5117217;28;19961;-42
2022/01/26 02:09:06;;;;;;;;;;;1.20;99.90;;;;;;5117533;28;19908;-41
2022/01/26 02:11:32;;;;;;;;;;;1.20;99.90;;;;;;5116916;28;20311;-42
2022/01/26 02:14:09;;;;;;;;;;;1.10;99.90;;;;;;5116769;28;19907;-42
2022/01/26 02:16:49;;;;;;;;;;;1.10;99.90;;;;;;5117108;28;19907;-42
2022/01/26 03:02:01;;;;;;;;;;;1.10;99.90;;;;;;5116346;28;19961;-43
2022/01/26 03:07:09;;;;;;;;;;;1.10;99.90;;;;;;5116120;28;20007;-42
2022/01/26 03:09:41;;;;;;;;;;;1.10;99.90;;;;;;5115836;28;20003;-42
2022/01/26 03:12:08;;;;;;;;;;;1.10;99.90;;;;;;5097857;28;19914;-42
2022/01/26 03:17:45;;;;;;;;;;;1.10;99.90;;;;;;5115995;28;19950;-42
2022/01/26 03:19:54;;;;;;;;;;;1.10;99.90;;;;;;5115418;28;19908;-42
2022/01/26 03:30:08;;;;;;;;;;;1.10;99.90;;;;;;5115633;28;19912;-42
2022/01/26 03:35:29;;;;;;;;;;;1.10;99.90;;;;;;5115655;28;19915;-42
2022/01/26 03:37:57;;;;;;;;;;;1.10;99.90;;;;;;5115905;28;19908;-43
2022/01/26 03:40:31;;;;;;;;;;;1.10;99.90;;;;;;5115470;28;19918;-43
2022/01/26 03:42:59;;;;;;;;;;;1.20;99.90;;;;;;5115536;28;19908;-43
2022/01/26 03:45:26;;;;;;;;;;;1.20;99.90;;;;;;5115256;28;19965;-43
2022/01/26 03:47:52;;;;;;;;;;;1.20;99.90;;;;;;5114972;28;19912;-42
2022/01/26 03:50:18;;;;;;;;;;;1.10;99.90;;;;;;5115294;28;19912;-42
2022/01/26 03:52:44;;;;;;;;;;;1.10;99.90;;;;;;5115177;28;19907;-41
2022/01/26 03:55:10;;;;;;;;;;;0.60;99.90;;;;;;5115154;28;19911;-42
2022/01/26 03:57:35;;;;;;;;;;;0.70;99.90;;;;;;5115141;28;20335;-42
2022/01/26 04:00:01;;;;;;;;;;;0.90;99.90;;;;;;5115077;28;19908;-41
2022/01/26 04:02:27;;;;;;;;;;;1.10;99.90;;;;;;5114735;28;19908;-43
2022/01/26 04:04:58;;;;;;;;;;;1.10;99.90;;;;;;5114911;28;19916;-42
2022/01/26 04:07:23;;;;;;;;;;;1.00;99.90;;;;;;5114060;28;20291;-42
2022/01/26 04:09:49;;;;;;;;;;;1.00;99.90;;;;;;5114855;28;20026;-42
2022/01/26 04:12:15;;;;;;;;;;;0.80;99.90;;;;;;5114660;28;20351;-42
2022/01/26 04:14:43;;;;;;;;;;;0.80;99.90;;;;;;5115056;28;19914;-42
2022/01/26 04:17:09;;;;;;;;;;;0.80;99.90;;;;;;5114742;28;19915;-41
2022/01/26 04:19:36;;;;;;;;;;;0.80;99.90;;;;;;5114995;28;20261;-42
2022/01/26 04:24:41;;;;;;;;;;;0.90;99.90;;;;;;5114530;28;19934;-41
2022/01/26 04:29:39;;;;;;;;;;;0.90;99.90;;;;;;5114623;28;19980;-42
2022/01/26 04:32:06;;;;;;;;;;;0.80;99.90;;;;;;5114409;28;19947;-43
2022/01/26 04:34:33;;;;;;;;;;;0.70;99.90;;;;;;5114333;28;19912;-42
2022/01/26 04:37:09;;;;;;;;;;;0.80;99.90;;;;;;5114095;28;19951;-42
2022/01/26 04:39:44;;;;;;;;;;;0.70;99.90;;;;;;5114617;28;19912;-42
2022/01/26 04:42:16;;;;;;;;;;;0.60;99.90;;;;;;5114658;28;19934;-42
2022/01/26 04:44:48;;;;;;;;;;;0.70;99.90;;;;;;5114247;28;20433;-42
2022/01/26 04:47:14;;;;;;;;;;;0.70;99.90;;;;;;5114116;28;20014;-42
2022/01/26 04:49:39;;;;;;;;;;;0.70;99.90;;;;;;5113976;28;20358;-41
2022/01/26 04:52:05;;;;;;;;;;;0.80;99.90;;;;;;5113991;28;19990;-42
2022/01/26 04:54:31;;;;;;;;;;;0.90;99.90;;;;;;5114015;28;19908;-43
2022/01/26 04:56:56;;;;;;;;;;;0.90;99.90;;;;;;5114293;28;19907;-43
2022/01/26 04:59:22;;;;;;;;;;;1.00;99.90;;;;;;5114341;28;20313;-42
2022/01/26 05:01:47;;;;;;;;;;;1.00;99.90;;;;;;5114254;28;19908;-42
2022/01/26 05:04:13;;;;;;;;;;;1.00;99.90;;;;;;5114172;28;19915;-42
2022/01/26 05:06:38;;;;;;;;;;;0.90;99.90;;;;;;5114141;28;19915;-42
2022/01/26 05:09:04;;;;;;;;;;;0.90;99.90;;;;;;5114142;28;20261;-41
2022/01/26 05:11:36;;;;;;;;;;;0.90;99.90;;;;;;5114061;28;20273;-41
2022/01/26 05:14:03;;;;;;;;;;;1.00;99.90;;;;;;5113933;28;20343;-41
2022/01/26 05:16:29;;;;;;;;;;;0.90;99.90;;;;;;5113616;28;19928;-42
2022/01/26 05:18:55;;;;;;;;;;;0.80;99.90;;;;;;5115424;28;19922;-41
2022/01/26 05:21:21;;;;;;;;;;;0.70;99.90;;;;;;5117677;28;20419;-42
2022/01/26 05:23:47;;;;;;;;;;;0.70;99.90;;;;;;5117633;28;19908;-42
2022/01/26 05:26:12;;;;;;;;;;;0.60;99.90;;;;;;5117443;28;19969;-42
2022/01/26 05:28:38;;;;;;;;;;;0.60;99.90;;;;;;5099549;28;19907;-42
2022/01/26 05:31:04;;;;;;;;;;;0.70;99.90;;;;;;5117657;28;19908;-42
2022/01/26 05:33:29;;;;;;;;;;;0.60;99.90;;;;;;5117785;28;19915;-41
2022/01/26 05:35:55;;;;;;;;;;;0.60;99.90;;;;;;5117371;28;19961;-41
2022/01/26 05:38:20;;;;;;;;;;;0.50;99.90;;;;;;5117087;28;20277;-42
2022/01/26 05:40:46;;;;;;;;;;;0.40;99.90;;;;;;5117082;28;19955;-42
2022/01/26 05:43:12;;;;;;;;;;;0.40;99.90;;;;;;5099259;28;19908;-41
2022/01/26 05:45:39;;;;;;;;;;;0.20;99.90;;;;;;5110623;28;19916;-42
2022/01/26 05:48:09;;;;;;;;;;;0.10;99.90;;;;;;5100802;28;19988;-41
2022/01/26 05:50:37;;;;;;;;;;;0.10;99.90;;;;;;5097653;28;19909;-42
2022/01/26 05:53:02;;;;;;;;;;;0.00;99.90;;;;;;5095914;28;20312;-42
2022/01/26 05:55:28;;;;;;;;;;;-0.10;99.90;;;;;;5096043;28;19908;-42
2022/01/26 05:57:53;;;;;;;;;;;-0.20;99.90;;;;;;5102245;28;19908;-42
2022/01/26 06:00:19;;;;;;;;;;;-0.20;99.90;;;;;;5096664;28;19912;-42
2022/01/26 06:02:45;;;;;;;;;;;-0.20;99.90;;;;;;5095908;28;20278;-42
2022/01/26 06:05:11;;;;;;;;;;;-0.20;99.90;;;;;;5079281;28;19912;-42
2022/01/26 06:07:37;;;;;;;;;;;-0.20;99.90;;;;;;5114751;28;19980;-42
2022/01/26 06:10:03;;;;;;;;;;;-0.20;99.90;;;;;;5102133;28;19959;-42
2022/01/26 06:12:29;;;;;;;;;;;-0.20;99.90;;;;;;5106724;28;20392;-42
2022/01/26 06:14:55;;;;;;;;;;;-0.20;99.90;;;;;;5104353;28;19912;-41
2022/01/26 06:17:21;;;;;;;;;;;-0.30;99.90;;;;;;5112019;28;20273;-42
2022/01/26 06:19:46;;;;;;;;;;;-0.30;99.90;;;;;;5116181;28;19971;-42
2022/01/26 06:22:12;;;;;;;;;;;-0.40;99.90;;;;;;5098503;28;20003;-43
2022/01/26 06:24:37;;;;;;;;;;;-0.40;99.90;;;;;;5097105;28;19972;-41
2022/01/26 06:27:03;;;;;;;;;;;-0.40;99.90;;;;;;5116232;28;19938;-42
2022/01/26 06:29:30;;;;;;;;;;;-0.40;99.90;;;;;;5108747;28;19908;-43
2022/01/26 06:31:56;;;;;;;;;;;-0.40;99.90;;;;;;5095659;28;19957;-42
2022/01/26 06:34:22;;;;;;;;;;;-0.40;99.90;;;;;;5095857;28;19912;-42
2022/01/26 06:36:47;;;;;;;;;;;-0.50;99.90;;;;;;5099175;28;19919;-42
2022/01/26 06:39:13;;;;;;;;;;;-0.50;99.90;;;;;;5093600;28;19912;-43
2022/01/26 06:41:47;;;;;;;;;;;-0.40;99.90;;;;;;5093605;28;19908;-45
2022/01/26 06:44:25;;;;;;;;;;;-0.50;99.90;;;;;;5095434;28;20077;-43
2022/01/26 06:47:52;;;;;;;;;;;-0.40;99.90;;;;;;5094819;28;19919;-42
2022/01/26 06:49:46;;;;;;;;;;;-0.40;99.90;;;;;;5085773;28;19909;-42
2022/01/26 06:52:11;;;;;;;;;;;-0.30;99.90;;;;;;5095091;28;19915;-42
2022/01/26 06:54:37;;;;;;;;;;;-0.30;99.90;;;;;;5094895;28;19908;-43
2022/01/26 06:57:03;;;;;;;;;;;-0.40;99.90;;;;;;5076529;28;20350;-43
2022/01/26 06:59:28;;;;;;;;;;;-0.30;99.90;;;;;;5095033;28;19908;-44
2022/01/26 07:01:54;;;;;;;;;;;-0.30;99.90;;;;;;5095090;28;20006;-43
2022/01/26 07:04:19;;;;;;;;;;;-0.20;99.90;;;;;;5094753;28;19909;-43
2022/01/26 07:06:45;;;;;;;;;;;-0.20;99.90;;;;;;5094949;28;19923;-44
2022/01/26 07:09:10;;;;;;;;;;;-0.30;99.90;;;;;;5095014;28;19931;-43
2022/01/26 07:11:36;;;;;;;;;;;-0.30;99.90;;;;;;5094941;28;19908;-42
2022/01/26 07:14:06;;;;;;;;;;;-0.20;99.90;;;;;;5094592;28;20369;-43
2022/01/26 07:20:30;;;;;;;;;;;-0.20;99.90;;;;;;5094227;28;19931;-43
2022/01/26 07:22:05;;;;;;;;;;;-0.10;99.90;;;;;;5086204;28;19942;-42
2022/01/26 07:24:30;;;;;;;;;;;0.00;99.90;;;;;;5100902;28;20024;-42
2022/01/26 07:26:56;;;;;;;;;;;0.20;99.90;;;;;;5102644;28;19916;-43
2022/01/26 07:29:23;;;;;;;;;;;0.20;99.90;;;;;;5094810;28;19908;-42
2022/01/26 07:31:49;;;;;;;;;;;0.20;99.90;;;;;;5094388;28;19908;-41
2022/01/26 07:34:16;;;;;;;;;;;0.40;99.90;;;;;;5094049;28;19938;-43
2022/01/26 07:36:42;;;;;;;;;;;0.30;99.90;;;;;;5094422;28;20407;-43
2022/01/26 07:39:13;;;;;;;;;;;0.40;99.90;;;;;;5094490;28;19954;-44
2022/01/26 07:41:38;;;;;;;;;;;0.40;99.90;;;;;;5093669;28;19951;-42
2022/01/26 07:44:04;;;;;;;;;;;0.60;99.90;;;;;;5094118;28;19908;-42
2022/01/26 07:46:30;;;;;;;;;;;0.50;99.90;;;;;;5094166;28;19939;-43
2022/01/26 07:48:56;;;;;;;;;;;0.60;99.90;;;;;;5094226;28;19954;-42
2022/01/26 07:51:21;;;;;;;;;;;0.60;99.90;;;;;;5075920;28;19908;-42
2022/01/26 07:53:48;;;;;;;;;;;0.60;99.90;;;;;;5094158;28;20274;-42
2022/01/26 07:56:13;;;;;;;;;;;0.70;99.90;;;;;;5094422;28;19927;-43
2022/01/26 07:58:40;;;;;;;;;;;1.00;99.90;;;;;;5094385;28;20266;-43
2022/01/26 08:01:06;;;;;;;;;;;1.10;99.90;;;;;;5094101;28;20019;-42
2022/01/26 08:03:33;;;;;;;;;;;1.10;99.90;;;;;;5094020;28;19908;-42
2022/01/26 08:06:00;;;;;;;;;;;1.10;99.90;;;;;;5093985;28;19923;-43
2022/01/26 08:08:26;;;;;;;;;;;0.80;99.90;;;;;;5094072;28;19961;-42
2022/01/26 08:10:51;;;;;;;;;;;0.70;99.90;;;;;;5093704;28;20255;-42
2022/01/26 08:13:17;;;;;;;;;;;0.80;99.90;;;;;;5093567;28;20354;-42
2022/01/26 08:15:42;;;;;;;;;;;0.80;99.90;;;;;;5094075;28;19912;-42
2022/01/26 08:18:08;;;;;;;;;;;1.00;99.90;;;;;;5093708;28;19916;-43
2022/01/26 08:20:33;;;;;;;;;;;1.10;99.90;;;;;;5093447;28;19908;-43
2022/01/26 08:22:59;;;;;;;;;;;1.30;99.90;;;;;;5093889;28;19999;-42
2022/01/26 08:25:25;;;;;;;;;;;1.30;99.90;;;;;;5093754;28;20030;-42
2022/01/26 08:27:59;;;;;;;;;;;1.10;99.90;;;;;;5093559;28;19915;-42
2022/01/26 08:30:24;;;;;;;;;;;1.20;99.90;;;;;;5093453;28;19938;-42
2022/01/26 08:32:50;;;;;;;;;;;1.10;99.90;;;;;;5093574;28;20331;-43
2022/01/26 08:35:15;;;;;;;;;;;1.40;99.90;;;;;;5092909;28;19957;-44
2022/01/26 08:37:41;;;;;;;;;;;1.50;99.90;;;;;;5092972;28;19908;-42
2022/01/26 08:40:07;;;;;;;;;;;1.50;99.90;;;;;;5093450;28;20002;-43
2022/01/26 08:42:32;;;;;;;;;;;1.70;99.90;;;;;;5093209;28;19934;-42
2022/01/26 08:44:58;;;;;;;;;;;1.80;99.90;;;;;;5093107;28;20016;-43
2022/01/26 08:47:23;;;;;;;;;;;1.80;99.90;;;;;;5093025;28;19934;-42
2022/01/26 08:49:49;;;;;;;;;;;1.90;99.90;;;;;;5075450;28;20273;-43
2022/01/26 08:52:15;;;;;;;;;;;1.80;99.90;;;;;;5093557;28;20227;-44
2022/01/26 08:54:40;;;;;;;;;;;1.80;99.90;;;;;;5078267;28;19950;-44
2022/01/26 08:57:06;;;;;;;;;;;1.80;99.90;;;;;;5079039;28;19915;-43
2022/01/26 08:59:31;;;;;;;;;;;1.70;99.90;;;;;;5097484;28;20369;-43
2022/01/26 09:01:57;;;;;;;;;;;1.80;99.90;;;;;;5097071;28;19963;-42
2022/01/26 09:04:22;;;;;;;;;;;2.10;99.90;;;;;;5097253;28;19970;-42
2022/01/26 09:07:00;;;;;;;;;;;2.10;99.90;;;;;;5096932;28;20362;-42
2022/01/26 09:09:29;;;;;;;;;;;1.80;99.90;;;;;;5097398;28;19908;-42
2022/01/26 09:11:57;;;;;;;;;;;1.70;99.90;;;;;;5097428;28;19908;-42
2022/01/26 09:14:26;;;;;;;;;;;1.80;99.90;;;;;;5097009;28;20262;-43
2022/01/26 09:16:53;;;;;;;;;;;2.10;99.90;;;;;;5097060;28;19908;-42
2022/01/26 09:19:30;;;;;;;;;;;2.20;99.90;;;;;;5096732;28;19961;-42
2022/01/26 09:21:57;;;;;;;;;;;2.30;99.90;;;;;;5097101;28;19912;-43
2022/01/26 09:24:25;;;;;;;;;;;2.50;99.90;;;;;;5096787;28;19928;-42
2022/01/26 09:26:51;;;;;;;;;;;2.80;99.90;;;;;;5096598;28;19922;-42
2022/01/26 09:29:16;;;;;;;;;;;2.90;99.90;;;;;;5096767;28;19912;-44
2022/01/26 09:31:42;;;;;;;;;;;3.00;99.90;;;;;;5097088;28;19912;-43
2022/01/26 09:34:08;;;;;;;;;;;3.10;99.90;;;;;;5096778;28;19916;-42
2022/01/26 09:36:33;;;;;;;;;;;3.20;99.90;;;;;;5096681;28;19908;-42
2022/01/26 09:38:59;;;;;;;;;;;3.30;99.90;;;;;;5096269;28;20333;-42
2022/01/26 09:41:25;;;;;;;;;;;3.40;99.90;;;;;;5097015;28;19915;-41
2022/01/26 09:43:51;;;;;;;;;;;3.50;99.90;;;;;;5096554;28;19908;-41
2022/01/26 09:46:16;;;;;;;;;;;3.00;99.90;;;;;;5096209;28;20380;-43
2022/01/26 09:48:43;;;;;;;;;;;3.20;99.90;;;;;;5096244;28;20460;-42
2022/01/26 09:51:12;;;;;;;;;;;3.10;99.90;;;;;;5096482;28;19908;-43
2022/01/26 09:53:38;;;;;;;;;;;3.40;99.90;;;;;;5096451;28;19912;-44
2022/01/26 09:56:04;;;;;;;;;;;3.50;99.90;;;;;;5096350;28;20124;-42
2022/01/26 09:58:29;;;;;;;;;;;3.80;99.90;;;;;;5096412;28;19908;-42
2022/01/26 10:01:02;;;;;;;;;;;3.60;99.90;;;;;;5096294;28;19908;-42
2022/01/26 10:03:31;;;;;;;;;;;3.80;99.90;;;;;;5096584;28;19908;-43
2022/01/26 10:05:57;;;;;;;;;;;3.80;99.90;;;;;;5094991;28;19923;-42
2022/01/26 10:08:50;;;;;;;;;;;3.80;99.90;;;;;;5096310;28;19916;-42
2022/01/26 10:19:00;;;;;;;;;;;3.90;99.90;;;;;;5095964;28;19977;-41
2022/01/26 10:21:25;;;;;;;;;;;4.10;99.90;;;;;;5095722;28;19909;-43
2022/01/26 10:23:57;;;;;;;;;;;4.20;99.90;;;;;;5095234;28;19915;-43
2022/01/26 10:26:22;;;;;;;;;;;4.40;99.90;;;;;;5095417;28;19938;-43
2022/01/26 10:28:52;;;;;;;;;;;4.20;99.90;;;;;;5095768;28;20402;-42
2022/01/26 10:31:23;;;;;;;;;;;4.30;99.90;;;;;;5095495;28;19915;-42
2022/01/26 10:34:08;;;;;;;;;;;4.50;99.90;;;;;;5095578;28;19908;-43
2022/01/26 10:36:36;;;;;;;;;;;4.90;99.90;;;;;;5095355;28;19914;-43
2022/01/26 10:39:08;;;;;;;;;;;5.30;99.90;;;;;;5095648;28;19908;-43
2022/01/26 10:41:35;;;;;;;;;;;5.40;99.90;;;;;;5095961;28;19976;-43
2022/01/26 10:44:02;;;;;;;;;;;5.60;99.90;;;;;;5095194;28;20315;-42
2022/01/26 10:46:34;;;;;;;;;;;5.50;99.90;;;;;;5095348;28;20019;-43
2022/01/26 10:50:07;;;;;;;;;;;5.40;99.90;;;;;;5095329;28;19935;-42
2022/01/26 10:52:00;;;;;;;;;;;5.00;99.90;;;;;;5086960;28;19998;-42
2022/01/26 10:54:38;;;;;;;;;;;4.70;99.90;;;;;;5095202;28;19915;-42
2022/01/26 10:57:05;;;;;;;;;;;4.50;99.90;;;;;;5095272;28;19909;-44
2022/01/26 10:59:37;;;;;;;;;;;4.50;99.90;;;;;;5094798;28;19908;-42
2022/01/26 11:02:07;;;;;;;;;;;4.50;99.90;;;;;;5095135;28;19919;-42
2022/01/26 11:04:34;;;;;;;;;;;4.60;99.90;;;;;;5095040;28;19991;-42
2022/01/26 11:07:00;;;;;;;;;;;4.50;99.90;;;;;;5095008;28;20011;-44
2022/01/26 11:09:27;;;;;;;;;;;4.60;99.90;;;;;;5094652;28;19984;-43
2022/01/26 11:12:03;;;;;;;;;;;4.60;99.90;;;;;;5094957;28;20354;-42
2022/01/26 11:14:38;;;;;;;;;;;4.50;99.90;;;;;;5094650;28;19908;-42
2022/01/26 11:17:03;;;;;;;;;;;4.70;99.90;;;;;;5094443;28;19908;-41
2022/01/26 11:19:38;;;;;;;;;;;4.80;99.90;;;;;;5094467;28;20283;-44
2022/01/26 11:22:08;;;;;;;;;;;5.00;99.90;;;;;;5094979;28;19930;-43
2022/01/26 11:24:41;;;;;;;;;;;4.90;99.90;;;;;;5094674;28;19920;-46
2022/01/26 11:27:07;;;;;;;;;;;5.10;99.90;;;;;;5095036;28;20422;-44
2022/01/26 11:29:34;;;;;;;;;;;5.00;99.90;;;;;;5094575;28;19912;-43
2022/01/26 11:32:10;;;;;;;;;;;5.20;99.90;;;;;;5094778;28;19994;-43
2022/01/26 11:34:36;;;;;;;;;;;5.40;99.90;;;;;;5094692;28;20251;-42
2022/01/26 11:37:04;;;;;;;;;;;5.30;99.90;;;;;;5094357;28;19984;-41
2022/01/26 11:45:04;;;;;;;;;;;5.20;99.90;;;;;;5031837;28;20407;-43
2022/01/26 11:45:35;;;;;;;;;;;5.40;99.90;;;;;;5031834;28;19909;-42
2022/01/26 11:48:20;;;;;;;;;;;5.40;99.90;;;;;;5076305;28;19908;-42
2022/01/26 11:50:56;;;;;;;;;;;5.30;99.90;;;;;;5093861;28;19915;-43
2022/01/26 11:53:24;;;;;;;;;;;5.00;99.90;;;;;;5094175;28;19916;-42
2022/01/26 11:55:52;;;;;;;;;;;4.90;99.90;;;;;;5094215;28;19915;-43
2022/01/26 11:58:34;;;;;;;;;;;4.90;99.90;;;;;;5093592;28;19912;-43
2022/01/26 12:01:12;;;;;;;;;;;4.80;99.90;;;;;;5094122;28;19916;-42
2022/01/26 12:03:46;;;;;;;;;;;4.70;99.90;;;;;;5094260;28;19908;-42
2022/01/26 12:06:20;;;;;;;;;;;5.00;99.90;;;;;;5093580;28;19923;-43
2022/01/26 12:08:46;;;;;;;;;;;5.40;99.90;;;;;;5093685;28;19908;-43
2022/01/26 12:11:13;;;;;;;;;;;5.60;99.90;;;;;;5094090;28;19915;-44
2022/01/26 12:13:40;;;;;;;;;;;5.60;99.90;;;;;;5094136;28;19909;-43
2022/01/26 12:16:18;;;;;;;;;;;5.50;99.90;;;;;;5093991;28;19993;-43
2022/01/26 12:32:29;;;;;;;;;;;5.90;99.90;;;;;;5092982;28;20266;-42
2022/01/26 12:35:09;;;;;;;;;;;5.80;99.90;;;;;;5093155;28;19915;-43
2022/01/26 12:37:50;;;;;;;;;;;6.10;99.90;;;;;;5074720;28;19957;-42
2022/01/26 12:43:07;;;;;;;;;;;5.40;99.90;;;;;;5092854;28;19915;-43
2022/01/26 12:45:33;;;;;;;;;;;5.40;99.90;;;;;;5092992;28;19916;-44
2022/01/26 12:47:59;;;;;;;;;;;5.70;99.90;;;;;;5093258;28;19908;-46
2022/01/26 12:50:25;;;;;;;;;;;5.90;99.90;;;;;;5093029;28;19908;-42
2022/01/26 12:52:51;;;;;;;;;;;6.00;99.90;;;;;;5093340;28;19908;-44
2022/01/26 12:55:25;;;;;;;;;;;6.20;99.90;;;;;;5074930;28;20274;-43
2022/01/26 12:57:50;;;;;;;;;;;6.20;99.90;;;;;;5092877;28;19999;-42
2022/01/26 13:00:16;;;;;;;;;;;6.30;99.90;;;;;;5092761;28;20008;-43
2022/01/26 13:02:42;;;;;;;;;;;6.40;99.90;;;;;;5092763;28;19908;-44
2022/01/26 13:05:08;;;;;;;;;;;6.10;99.90;;;;;;5093036;28;20305;-44
2022/01/26 13:07:34;;;;;;;;;;;5.70;99.90;;;;;;5092775;28;19916;-42
2022/01/26 13:09:59;;;;;;;;;;;5.80;99.90;;;;;;5092379;28;19961;-44
2022/01/26 13:12:29;;;;;;;;;;;5.80;99.90;;;;;;5093174;28;19918;-42
2022/01/26 13:15:08;;;;;;;;;;;6.00;99.90;;;;;;5092683;28;20326;-43
2022/01/26 13:17:42;;;;;;;;;;;6.00;99.90;;;;;;5093024;28;19908;-43
2022/01/26 13:27:53;;;;;;;;;;;5.30;99.90;;;;;;5074607;28;19916;-42
2022/01/26 13:35:48;;;;;;;;;;;5.70;99.90;;;;;;5100937;28;19954;-42
2022/01/26 13:38:34;;;;;;;;;;;5.80;99.90;;;;;;5096688;28;19927;-43
2022/01/26 13:51:20;;;;;;;;;;;5.70;99.90;;;;;;5097362;28;20341;-45
2022/01/26 13:56:18;;;;;;;;;;;5.90;99.90;;;;;;5101794;28;19966;-46
2022/01/26 13:58:57;;;;;;;;;;;6.00;99.90;;;;;;5102868;28;20490;-43
2022/01/26 14:01:22;;;;;;;;;;;5.70;99.90;;;;;;5100094;28;20326;-44
2022/01/26 14:03:52;;;;;;;;;;;5.60;99.90;;;;;;5093396;28;19912;-44
2022/01/26 14:06:18;;;;;;;;;;;5.50;99.90;;;;;;5097621;28;19985;-44
2022/01/26 14:08:44;;;;;;;;;;;5.60;99.90;;;;;;5095222;28;19908;-43
2022/01/26 14:11:09;;;;;;;;;;;5.40;99.90;;;;;;5094593;28;19962;-45
2022/01/26 14:13:36;;;;;;;;;;;5.50;99.90;;;;;;5094093;28;20435;-45
2022/01/26 14:16:04;;;;;;;;;;;5.50;99.90;;;;;;5094385;28;19998;-43
2022/01/26 14:23:59;;;;;;;;;;;5.50;99.90;;;;;;5094148;28;19930;-43
2022/01/26 14:26:29;;;;;;;;;;;5.50;99.90;;;;;;5095031;28;19973;-43
2022/01/26 14:28:55;;;;;;;;;;;5.70;99.90;;;;;;5095703;28;19961;-44
2022/01/26 14:31:58;;;;;;;;;;;5.60;99.90;;;;;;5095551;28;20039;-42
2022/01/26 14:34:49;;;;;;;;;;;5.40;99.90;;;;;;5092704;28;19988;-47
2022/01/26 15:33:48;;;;;;;;;;;5.20;99.90;;;;;;5068878;28;19915;-44
2022/01/26 16:04:22;;;;;;;;;;;3.60;99.90;;;;;;5093894;28;19915;-43
2022/01/26 16:06:19;;;;;;;;;;;3.10;99.90;;;;;;5093704;28;19920;-43
2022/01/26 16:08:31;;;;;;;;;;;3.00;99.90;;;;;;5079355;28;19917;-45
2022/01/26 17:11:35;;;;;;;;;;;1.30;99.90;;;;;;5092788;28;20282;-43
2022/01/26 17:47:05;;;;;;;;;;;2.00;99.90;;;;;;5098419;28;19927;-48
2022/01/26 18:25:53;;;;;;;;;;;1.40;99.90;;;;;;5073836;28;20010;-42
2022/01/26 18:33:28;;;;;;;;;;;1.30;99.90;;;;;;5110545;28;19959;-47
2022/01/26 18:49:19;;;;;;;;;;;1.30;99.90;;;;;;5101011;28;20007;-47
2022/01/26 18:51:58;;;;;;;;;;;1.10;99.90;;;;;;5080314;28;20330;-45
2022/01/26 18:54:31;;;;;;;;;;;0.70;99.90;;;;;;5106496;28;19923;-44
2022/01/26 18:56:58;;;;;;;;;;;0.80;99.90;;;;;;5095662;28;19908;-48
2022/01/26 18:59:23;;;;;;;;;;;0.90;99.90;;;;;;5095462;28;20334;-44
2022/01/26 19:01:52;;;;;;;;;;;0.80;99.90;;;;;;5107628;28;19956;-51
2022/01/26 19:04:24;;;;;;;;;;;0.90;99.90;;;;;;5108496;28;19915;-49
2022/01/26 19:06:52;;;;;;;;;;;0.90;99.90;;;;;;5106088;28;20290;-48
2022/01/26 19:09:21;;;;;;;;;;;1.30;99.90;;;;;;5082436;28;19919;-49
2022/01/26 19:11:47;;;;;;;;;;;1.30;99.90;;;;;;5115591;28;19950;-44
2022/01/26 19:14:13;;;;;;;;;;;1.40;99.90;;;;;;5103656;28;19995;-45
2022/01/26 19:16:47;;;;;;;;;;;1.30;99.90;;;;;;5097806;28;20041;-43
2022/01/26 19:24:47;;;;;;;;;;;0.80;99.90;;;;;;5094631;28;19975;-43
2022/01/26 19:27:23;;;;;;;;;;;1.10;99.90;;;;;;5094434;28;19927;-50
2022/01/26 19:29:58;;;;;;;;;;;1.10;99.90;;;;;;5094587;28;19908;-47
2022/01/26 19:43:37;;;;;;;;;;;1.50;99.90;;;;;;5057138;28;19916;-45
2022/01/26 19:51:15;;;;;;;;;;;1.60;99.90;;;;;;5094257;28;19961;-51
2022/01/26 19:53:41;;;;;;;;;;;1.60;99.90;;;;;;5112488;28;20273;-44
2022/01/26 19:56:07;;;;;;;;;;;1.60;99.90;;;;;;5105471;28;19919;-49
2022/01/26 19:58:32;;;;;;;;;;;1.50;99.90;;;;;;5108723;28;19916;-51
2022/01/26 20:00:58;;;;;;;;;;;1.60;99.90;;;;;;5114425;28;20385;-53
2022/01/26 20:03:24;;;;;;;;;;;1.60;99.90;;;;;;5076977;28;19912;-46
2022/01/26 20:05:52;;;;;;;;;;;1.70;99.90;;;;;;5110789;28;20312;-50
2022/01/26 20:10:50;;;;;;;;;;;1.70;99.90;;;;;;5114333;28;19914;-44
2022/01/26 20:13:23;;;;;;;;;;;1.70;99.90;;;;;;5103087;28;19916;-45
2022/01/26 20:15:49;;;;;;;;;;;1.90;99.90;;;;;;5107848;28;19920;-45
2022/01/26 20:18:15;;;;;;;;;;;1.70;99.90;;;;;;5114676;28;19961;-45
2022/01/26 20:20:40;;;;;;;;;;;1.80;99.90;;;;;;5114006;28;19908;-46
2022/01/26 20:23:08;;;;;;;;;;;1.80;99.90;;;;;;5114043;28;20368;-45
2022/01/26 20:25:33;;;;;;;;;;;1.90;99.90;;;;;;5114075;28;19924;-47
2022/01/26 20:28:05;;;;;;;;;;;1.80;99.90;;;;;;5114115;28;19919;-48
2022/01/26 20:30:33;;;;;;;;;;;1.60;99.90;;;;;;5113582;28;19908;-47
2022/01/26 20:32:59;;;;;;;;;;;1.50;99.90;;;;;;5113683;28;19955;-47
2022/01/26 20:35:24;;;;;;;;;;;1.50;99.90;;;;;;5113568;28;19915;-46
2022/01/26 20:37:50;;;;;;;;;;;1.50;99.90;;;;;;5113728;28;19908;-48
2022/01/26 20:40:16;;;;;;;;;;;1.50;99.90;;;;;;5076500;28;19957;-48
2022/01/26 20:42:42;;;;;;;;;;;1.40;99.90;;;;;;5093222;28;19908;-46
2022/01/26 20:45:08;;;;;;;;;;;1.40;99.90;;;;;;5075286;28;20307;-46
2022/01/26 20:47:34;;;;;;;;;;;1.50;99.90;;;;;;5075324;28;19916;-46
2022/01/26 20:50:00;;;;;;;;;;;1.40;99.90;;;;;;5092759;28;19976;-45
2022/01/26 20:52:25;;;;;;;;;;;1.50;99.90;;;;;;5093836;28;19998;-50
2022/01/26 20:54:51;;;;;;;;;;;1.60;99.90;;;;;;5075394;28;20363;-51
2022/01/26 20:57:17;;;;;;;;;;;1.40;99.90;;;;;;5093456;28;20270;-49
2022/01/26 20:59:42;;;;;;;;;;;1.30;99.90;;;;;;5093945;28;20464;-46
2022/01/26 21:02:08;;;;;;;;;;;1.20;99.90;;;;;;5093488;28;19934;-45
2022/01/26 21:04:33;;;;;;;;;;;1.10;99.90;;;;;;5093558;28;19912;-45
2022/01/26 21:06:59;;;;;;;;;;;1.10;99.90;;;;;;5075155;28;19935;-49
2022/01/26 21:09:24;;;;;;;;;;;1.20;99.90;;;;;;5093381;28;19935;-47
2022/01/26 21:11:50;;;;;;;;;;;1.30;99.90;;;;;;5075245;28;19908;-46
2022/01/26 21:14:15;;;;;;;;;;;1.30;99.90;;;;;;5093528;28;19909;-44
2022/01/26 21:16:41;;;;;;;;;;;1.40;99.90;;;;;;5093597;28;19953;-48
2022/01/26 21:19:07;;;;;;;;;;;1.30;99.90;;;;;;5075435;28;19994;-47
2022/01/26 21:21:32;;;;;;;;;;;1.30;99.90;;;;;;5093287;28;19912;-49